Time;durP1;ratioP1;P1;durP2;ratioP2;P2;SDS_P1;SDS_P2;PMS_P1;PMS_P2;Temp;Humidity;BMP_temperature;BMP_pressure;BME280_temperature;BME280_humidity;BME280_pressure;Samples;Min_cycle;Max_cycle;Signal;HPM_P1;HPM_P2
2023/09/12 00:00:13;;;;;;;15.00;10.77;;;18.00;99.90;;;;;;4954520;29;20200;-86
2023/09/12 00:02:46;;;;;;;11.98;9.57;;;18.20;99.90;;;;;;4943728;29;20251;-86
2023/09/12 00:05:17;;;;;;;15.65;10.50;;;18.30;99.90;;;;;;4955071;29;20235;-86
2023/09/12 00:07:47;;;;;;;14.02;10.90;;;18.40;99.90;;;;;;4955591;29;20193;-86
2023/09/12 00:10:18;;;;;;;10.48;8.40;;;18.40;99.90;;;;;;4955000;29;20208;-85
2023/09/12 00:12:49;;;;;;;12.77;8.50;;;18.40;99.90;;;;;;4954285;29;20196;-86
2023/09/12 00:15:20;;;;;;;9.35;8.13;;;18.40;99.90;;;;;;4969044;29;20204;-87
2023/09/12 00:17:53;;;;;;;9.25;7.32;;;18.40;99.90;;;;;;4958201;28;20569;-87
2023/09/12 00:20:24;;;;;;;9.95;7.07;;;18.40;99.90;;;;;;4950476;29;20286;-88
2023/09/12 00:22:56;;;;;;;9.38;8.00;;;18.50;99.90;;;;;;4954731;29;20579;-86
2023/09/12 00:25:26;;;;;;;10.00;7.47;;;18.70;99.90;;;;;;4954346;29;20228;-86
2023/09/12 00:27:57;;;;;;;12.85;9.20;;;18.80;99.90;;;;;;4937731;29;20219;-87
2023/09/12 00:30:28;;;;;;;15.00;10.32;;;18.90;99.90;;;;;;4953948;29;20196;-87
2023/09/12 00:33:01;;;;;;;10.73;8.98;;;19.00;99.90;;;;;;4947376;29;20576;-86
2023/09/12 00:35:32;;;;;;;13.75;9.77;;;19.10;99.90;;;;;;4950120;29;20279;-83
2023/09/12 00:38:02;;;;;;;12.27;9.18;;;19.20;99.90;;;;;;4952524;29;20215;-85
2023/09/12 00:40:32;;;;;;;12.63;9.50;;;19.20;99.90;;;;;;4954094;29;20203;-85
2023/09/12 00:43:02;;;;;;;14.80;10.38;;;19.30;99.90;;;;;;4953116;28;20216;-86
2023/09/12 00:45:33;;;;;;;10.88;7.80;;;19.30;99.90;;;;;;4950181;29;20587;-86
2023/09/12 00:48:07;;;;;;;12.57;8.30;;;19.50;99.90;;;;;;4951198;29;20196;-86
2023/09/12 00:50:39;;;;;;;12.13;9.30;;;19.50;99.90;;;;;;4949003;29;20572;-84
2023/09/12 00:53:11;;;;;;;10.60;9.43;;;19.60;99.90;;;;;;4949818;29;20563;-84
2023/09/12 00:55:47;;;;;;;13.90;10.35;;;19.60;99.90;;;;;;4951428;29;20265;-84
2023/09/12 00:58:18;;;;;;;13.18;9.50;;;19.80;99.90;;;;;;4943418;29;20674;-84
2023/09/12 01:00:49;;;;;;;11.30;9.00;;;19.90;99.90;;;;;;4953913;29;20192;-84
2023/09/12 01:03:23;;;;;;;9.85;8.00;;;20.00;99.90;;;;;;4944576;29;20571;-84
2023/09/12 01:05:55;;;;;;;7.88;7.07;;;20.10;99.90;;;;;;4942106;29;20227;-84
2023/09/12 01:08:25;;;;;;;12.63;8.13;;;20.20;99.90;;;;;;4936186;29;20200;-83
2023/09/12 01:10:58;;;;;;;10.75;7.35;;;20.20;99.90;;;;;;4938612;29;20212;-85
2023/09/12 01:13:28;;;;;;;10.40;7.50;;;20.20;99.90;;;;;;4934477;29;20208;-84
2023/09/12 01:15:59;;;;;;;12.07;8.02;;;20.30;99.90;;;;;;4950733;29;20231;-84
2023/09/12 01:18:32;;;;;;;9.27;7.72;;;20.20;99.90;;;;;;4952652;28;20200;-86
2023/09/12 01:21:36;;;;;;;10.43;7.72;;;20.10;99.90;;;;;;4967005;29;20211;-86
2023/09/12 01:24:38;;;;;;;10.50;6.22;;;20.20;99.90;;;;;;4953263;28;20227;-88
2023/09/12 01:27:23;;;;;;;7.13;5.15;;;20.30;99.90;;;;;;4935279;29;20203;-88
2023/09/12 01:29:59;;;;;;;8.02;6.53;;;20.40;99.90;;;;;;4935050;29;20224;-88
2023/09/12 01:32:31;;;;;;;8.30;6.35;;;20.60;99.90;;;;;;4935043;29;20644;-87
2023/09/12 01:35:03;;;;;;;9.88;7.10;;;20.50;99.90;;;;;;4942106;28;20236;-90
2023/09/12 01:37:34;;;;;;;11.40;6.55;;;20.60;99.90;;;;;;4945710;29;20212;-88
2023/09/12 01:40:06;;;;;;;7.55;6.25;;;20.20;99.90;;;;;;4949301;28;20207;-86
2023/09/12 01:42:41;;;;;;;8.75;6.72;;;20.30;99.90;;;;;;4941672;29;20201;-87
2023/09/12 01:45:14;;;;;;;9.27;5.97;;;20.30;99.90;;;;;;4951943;29;20223;-87
2023/09/12 01:47:46;;;;;;;7.97;6.40;;;20.50;99.90;;;;;;4959007;29;20204;-87
2023/09/12 01:50:18;;;;;;;7.38;6.22;;;20.70;99.90;;;;;;4953925;29;20223;-86
2023/09/12 01:52:49;;;;;;;8.43;5.80;;;20.70;99.90;;;;;;4945878;29;20211;-85
2023/09/12 01:55:21;;;;;;;6.03;5.32;;;20.70;99.90;;;;;;4937056;29;20211;-84
2023/09/12 01:57:54;;;;;;;5.10;4.32;;;20.90;99.90;;;;;;4941692;29;20204;-86
2023/09/12 02:00:25;;;;;;;6.68;4.50;;;20.90;99.90;;;;;;4949064;29;20199;-86
2023/09/12 02:02:56;;;;;;;5.85;4.93;;;21.00;99.90;;;;;;4949623;29;20208;-87
2023/09/12 02:05:29;;;;;;;8.32;5.70;;;21.10;99.90;;;;;;4940156;29;20212;-87
2023/09/12 02:08:00;;;;;;;6.53;5.07;;;21.10;99.90;;;;;;4948220;29;20211;-87
2023/09/12 02:10:31;;;;;;;5.18;4.25;;;21.10;99.90;;;;;;4953414;29;20204;-88
2023/09/12 02:13:03;;;;;;;7.80;4.93;;;21.20;99.90;;;;;;4951517;29;20223;-87
2023/09/12 02:15:34;;;;;;;6.32;4.97;;;21.20;98.70;;;;;;4950291;29;20208;-87
2023/09/12 02:18:05;;;;;;;4.85;4.35;;;21.00;98.80;;;;;;4943616;29;20696;-87
2023/09/12 02:20:36;;;;;;;4.50;3.60;;;21.00;98.90;;;;;;4947699;29;20200;-87
2023/09/12 02:23:06;;;;;;;5.55;4.00;;;21.30;96.50;;;;;;4949920;29;20204;-87
2023/09/12 02:25:41;;;;;;;5.55;3.85;;;21.50;96.70;;;;;;4951340;29;20219;-87
2023/09/12 02:28:13;;;;;;;4.47;3.38;;;21.70;95.10;;;;;;4951003;28;20196;-85
2023/09/12 02:30:44;;;;;;;8.00;6.05;;;21.90;94.50;;;;;;4969584;28;20196;-88
2023/09/12 02:33:17;;;;;;;9.63;6.45;;;21.90;97.00;;;;;;4940625;29;20204;-87
2023/09/12 02:35:48;;;;;;;7.03;6.20;;;22.10;98.50;;;;;;4941739;29;20234;-88
2023/09/12 02:38:19;;;;;;;7.55;5.97;;;22.40;97.80;;;;;;4953240;29;20200;-87
2023/09/12 02:40:53;;;;;;;7.40;5.75;;;22.60;97.10;;;;;;4952435;28;20204;-87
2023/09/12 02:43:25;;;;;;;7.25;5.25;;;22.90;96.30;;;;;;4938365;29;20201;-87
2023/09/12 02:45:56;;;;;;;6.97;4.50;;;23.00;94.60;;;;;;4933732;29;20236;-87
2023/09/12 02:48:26;;;;;;;11.98;5.00;;;23.10;92.20;;;;;;4933631;29;20205;-86
2023/09/12 02:50:57;;;;;;;9.95;5.47;;;23.20;92.20;;;;;;4939441;29;20652;-86
2023/09/12 02:53:28;;;;;;;7.43;5.95;;;23.20;94.20;;;;;;4948230;29;20222;-86
2023/09/12 02:55:59;;;;;;;13.88;7.10;;;23.10;95.90;;;;;;4952515;29;20211;-86
2023/09/12 02:58:31;;;;;;;8.82;6.00;;;22.70;97.10;;;;;;4952672;29;20204;-85
2023/09/12 03:01:05;;;;;;;10.02;6.38;;;22.40;96.50;;;;;;4950406;29;20201;-86
2023/09/12 03:03:35;;;;;;;9.30;7.15;;;22.30;97.70;;;;;;4935106;29;20291;-86
2023/09/12 03:06:07;;;;;;;12.75;7.53;;;22.10;99.20;;;;;;4942239;29;20234;-86
2023/09/12 03:08:37;;;;;;;10.02;8.07;;;21.80;99.90;;;;;;4948280;29;20204;-86
2023/09/12 03:11:08;;;;;;;10.23;7.70;;;21.70;99.90;;;;;;4945399;29;20528;-86
2023/09/12 03:13:42;;;;;;;15.05;8.30;;;21.30;99.90;;;;;;4941150;29;20265;-86
2023/09/12 03:16:14;;;;;;;12.77;8.32;;;21.20;99.90;;;;;;4950799;29;20278;-86
2023/09/12 03:18:45;;;;;;;11.32;8.18;;;21.20;99.90;;;;;;4952451;29;20204;-86
2023/09/12 03:21:16;;;;;;;12.55;8.60;;;21.10;99.90;;;;;;4952473;29;20288;-86
2023/09/12 03:23:47;;;;;;;15.23;8.90;;;21.00;99.90;;;;;;4951506;29;20242;-86
2023/09/12 03:26:18;;;;;;;13.23;9.02;;;20.80;99.90;;;;;;4952031;29;20219;-86
2023/09/12 03:28:54;;;;;;;13.52;9.32;;;20.80;99.90;;;;;;4950369;29;20204;-86
2023/09/12 03:31:25;;;;;;;13.05;8.63;;;20.80;99.90;;;;;;4945931;29;20670;-86
2023/09/12 03:33:56;;;;;;;15.05;9.35;;;20.90;99.90;;;;;;4952600;29;20704;-86
2023/09/12 03:36:27;;;;;;;14.57;9.23;;;21.00;99.90;;;;;;4952034;28;20717;-86
2023/09/12 03:38:58;;;;;;;12.00;8.90;;;21.20;99.90;;;;;;4951836;29;20203;-84
2023/09/12 03:41:29;;;;;;;11.50;9.00;;;21.20;99.90;;;;;;4950282;29;20200;-84
2023/09/12 03:44:02;;;;;;;11.23;8.82;;;21.20;99.90;;;;;;4952241;29;20208;-85
2023/09/12 03:46:32;;;;;;;11.93;9.02;;;21.20;99.90;;;;;;4946879;29;20559;-87
2023/09/12 03:49:03;;;;;;;13.32;8.98;;;21.20;99.90;;;;;;4933124;29;20209;-85
2023/09/12 03:51:37;;;;;;;13.88;9.23;;;21.20;99.90;;;;;;4947955;28;20230;-86
2023/09/12 03:54:08;;;;;;;14.25;9.38;;;21.20;99.90;;;;;;4960846;29;20221;-86
2023/09/12 03:56:39;;;;;;;16.58;9.55;;;21.00;99.90;;;;;;4952033;29;20568;-85
2023/09/12 03:59:12;;;;;;;12.77;9.30;;;20.60;99.90;;;;;;4937417;29;20205;-85
2023/09/12 04:01:43;;;;;;;11.77;8.95;;;20.70;99.90;;;;;;4952272;29;20251;-85
2023/09/12 04:04:13;;;;;;;17.08;9.73;;;20.50;99.90;;;;;;4955852;29;20204;-86
2023/09/12 04:06:45;;;;;;;12.20;8.60;;;20.50;99.90;;;;;;4954512;29;20246;-87
2023/09/12 04:09:15;;;;;;;18.08;9.27;;;20.40;99.90;;;;;;4955530;29;20318;-85
2023/09/12 04:11:46;;;;;;;11.52;8.80;;;20.40;99.90;;;;;;4936100;29;20195;-86
2023/09/12 04:14:20;;;;;;;11.75;8.75;;;20.40;99.90;;;;;;4936802;29;20208;-87
2023/09/12 04:16:51;;;;;;;12.32;9.00;;;20.40;99.90;;;;;;4935737;29;20653;-86
2023/09/12 04:19:21;;;;;;;13.23;9.38;;;20.30;99.90;;;;;;4935505;29;20203;-85
2023/09/12 04:21:52;;;;;;;12.52;9.27;;;20.40;99.90;;;;;;4936023;29;20201;-84
2023/09/12 04:24:23;;;;;;;13.80;9.55;;;20.40;99.90;;;;;;4950670;29;20563;-85
2023/09/12 04:26:54;;;;;;;12.98;8.93;;;20.30;99.90;;;;;;4952751;29;20228;-86
2023/09/12 04:29:27;;;;;;;10.13;8.82;;;20.20;99.90;;;;;;4954871;29;20207;-86
2023/09/12 04:31:59;;;;;;;11.02;8.40;;;20.20;99.90;;;;;;4951980;29;20207;-85
2023/09/12 04:34:30;;;;;;;12.30;8.90;;;20.20;99.90;;;;;;4940327;28;20231;-85
2023/09/12 04:37:02;;;;;;;13.82;8.98;;;20.20;99.90;;;;;;4955242;29;20215;-86
2023/09/12 04:39:33;;;;;;;12.23;9.23;;;20.20;99.90;;;;;;4954797;29;20255;-87
2023/09/12 04:42:04;;;;;;;11.27;8.98;;;20.10;99.90;;;;;;4969024;28;20615;-85
2023/09/12 04:44:38;;;;;;;11.60;8.95;;;20.10;99.90;;;;;;4955741;29;20235;-86
2023/09/12 04:47:09;;;;;;;15.85;8.95;;;20.10;99.90;;;;;;4953472;29;20599;-86
2023/09/12 04:49:40;;;;;;;16.40;9.20;;;20.00;99.90;;;;;;4953552;29;20258;-86
2023/09/12 04:52:11;;;;;;;13.38;9.10;;;20.10;99.90;;;;;;4944278;29;20200;-86
2023/09/12 04:54:42;;;;;;;14.57;8.85;;;20.20;99.90;;;;;;4940987;29;20207;-86
2023/09/12 04:57:12;;;;;;;11.65;9.25;;;20.20;99.90;;;;;;4955233;29;20287;-86
2023/09/12 04:59:45;;;;;;;11.63;8.70;;;20.10;99.90;;;;;;4955431;29;20627;-85
2023/09/12 05:02:16;;;;;;;11.95;8.80;;;20.20;99.90;;;;;;4949489;29;20565;-85
2023/09/12 05:04:47;;;;;;;10.20;8.40;;;20.20;99.90;;;;;;4952213;29;20679;-85
2023/09/12 05:07:18;;;;;;;11.00;8.35;;;20.20;99.90;;;;;;4934850;29;20723;-84
2023/09/12 05:09:48;;;;;;;11.32;8.45;;;20.20;99.90;;;;;;4935280;29;20216;-85
2023/09/12 05:12:19;;;;;;;9.95;8.23;;;20.20;99.90;;;;;;4945149;29;20656;-85
2023/09/12 05:14:52;;;;;;;10.70;8.40;;;20.20;99.90;;;;;;4938444;29;20205;-85
2023/09/12 05:17:23;;;;;;;13.30;8.50;;;20.20;99.90;;;;;;4938142;29;20208;-86
2023/09/12 05:19:53;;;;;;;11.25;8.57;;;20.30;99.90;;;;;;4954162;29;20206;-85
2023/09/12 05:22:24;;;;;;;11.52;8.50;;;20.30;99.90;;;;;;4953297;29;20207;-85
2023/09/12 05:24:55;;;;;;;9.90;8.40;;;20.30;99.90;;;;;;4953820;29;20215;-85
2023/09/12 05:27:26;;;;;;;10.95;8.20;;;20.30;99.90;;;;;;4953750;29;20231;-85
2023/09/12 05:29:58;;;;;;;10.27;8.40;;;20.10;99.90;;;;;;4952686;29;20200;-85
2023/09/12 05:32:29;;;;;;;10.30;8.20;;;20.10;99.90;;;;;;4952585;29;20204;-85
2023/09/12 05:35:00;;;;;;;9.88;8.02;;;20.00;99.90;;;;;;4952189;28;20243;-85
2023/09/12 05:37:30;;;;;;;10.93;8.57;;;20.10;99.90;;;;;;4953350;29;20541;-85
2023/09/12 05:40:01;;;;;;;11.23;8.57;;;20.10;99.90;;;;;;4944406;29;20568;-86
2023/09/12 05:42:32;;;;;;;13.40;8.50;;;20.00;99.90;;;;;;4950928;29;20193;-86
2023/09/12 05:45:04;;;;;;;11.02;8.68;;;19.90;99.90;;;;;;4954205;29;20264;-85
2023/09/12 05:47:35;;;;;;;12.23;7.95;;;20.00;99.90;;;;;;4964147;29;20222;-85
2023/09/12 05:50:06;;;;;;;11.82;8.20;;;20.00;99.90;;;;;;4967695;29;20200;-85
2023/09/12 05:52:37;;;;;;;12.13;8.30;;;20.10;99.90;;;;;;4953351;29;20204;-84
2023/09/12 05:55:08;;;;;;;11.05;7.90;;;20.20;99.90;;;;;;4956550;29;20235;-85
2023/09/12 05:57:39;;;;;;;9.82;7.53;;;20.30;99.90;;;;;;4950366;29;20211;-86
2023/09/12 06:00:14;;;;;;;10.60;7.00;;;20.40;99.90;;;;;;4953287;29;20208;-85
2023/09/12 06:02:48;;;;;;;10.35;7.15;;;20.50;99.90;;;;;;4954560;29;20199;-85
2023/09/12 06:05:19;;;;;;;9.00;6.32;;;20.40;99.90;;;;;;4953951;29;20254;-86
2023/09/12 06:07:50;;;;;;;8.95;6.75;;;20.30;99.90;;;;;;4951701;29;20626;-85
2023/09/12 06:10:21;;;;;;;10.80;6.88;;;20.20;99.90;;;;;;4949064;29;20204;-85
2023/09/12 06:12:51;;;;;;;9.20;7.10;;;20.00;99.90;;;;;;4952862;29;20200;-85
2023/09/12 06:15:24;;;;;;;10.23;6.40;;;19.90;99.90;;;;;;4951764;28;20208;-85
2023/09/12 06:17:55;;;;;;;7.97;6.72;;;19.90;99.90;;;;;;4951918;29;20211;-85
2023/09/12 06:20:27;;;;;;;7.93;5.95;;;19.90;99.90;;;;;;4953116;29;20204;-85
2023/09/12 06:22:58;;;;;;;7.63;6.35;;;20.00;99.90;;;;;;4953068;29;20204;-85
2023/09/12 06:25:29;;;;;;;7.53;6.40;;;20.10;99.90;;;;;;4953114;29;20203;-86
2023/09/12 06:28:00;;;;;;;8.40;6.65;;;20.10;99.90;;;;;;4943240;29;20228;-85
2023/09/12 06:30:32;;;;;;;8.13;6.47;;;20.10;99.90;;;;;;4940725;29;20208;-85
2023/09/12 06:33:03;;;;;;;8.35;6.38;;;20.20;99.90;;;;;;4952969;29;20473;-86
2023/09/12 06:35:36;;;;;;;9.50;6.13;;;20.10;99.90;;;;;;4943331;29;20254;-80
2023/09/12 06:38:07;;;;;;;8.10;6.95;;;20.20;99.90;;;;;;4933565;29;20205;-84
2023/09/12 06:40:38;;;;;;;10.35;6.72;;;20.10;99.90;;;;;;4937099;28;20204;-85
2023/09/12 06:43:11;;;;;;;9.68;7.45;;;20.00;99.90;;;;;;4953771;29;20204;-86
2023/09/12 06:45:44;;;;;;;9.50;6.35;;;20.00;99.90;;;;;;4953052;29;20593;-85
2023/09/12 06:48:16;;;;;;;10.20;7.20;;;20.10;99.90;;;;;;4949808;28;20233;-85
2023/09/12 06:50:50;;;;;;;8.65;6.25;;;20.00;99.90;;;;;;4953102;29;20263;-86
2023/09/12 06:53:20;;;;;;;8.73;6.18;;;20.10;99.90;;;;;;4968786;28;20184;-85
2023/09/12 06:55:51;;;;;;;8.05;6.20;;;20.00;99.90;;;;;;4963743;29;20202;-85
2023/09/12 06:58:22;;;;;;;10.65;6.07;;;20.00;99.90;;;;;;4951694;29;20200;-85
2023/09/12 07:00:55;;;;;;;10.27;6.03;;;19.90;99.90;;;;;;4953127;29;20203;-84
2023/09/12 07:03:26;;;;;;;11.98;6.28;;;20.00;99.90;;;;;;4952088;29;20579;-86
2023/09/12 07:05:57;;;;;;;9.35;6.50;;;19.90;99.90;;;;;;4952840;29;20659;-87
2023/09/12 07:08:28;;;;;;;11.05;6.63;;;19.70;99.90;;;;;;4948992;29;20228;-86
2023/09/12 07:11:05;;;;;;;8.35;5.72;;;19.60;99.90;;;;;;4944613;29;20659;-86
2023/09/12 07:13:38;;;;;;;7.10;5.85;;;19.50;99.90;;;;;;4952152;29;20200;-87
2023/09/12 07:16:11;;;;;;;8.10;5.93;;;19.40;99.90;;;;;;4944072;29;20200;-88
2023/09/12 07:18:42;;;;;;;8.73;5.68;;;19.40;99.90;;;;;;4945994;29;20205;-86
2023/09/12 07:21:14;;;;;;;10.70;6.18;;;19.30;99.90;;;;;;4946904;29;20192;-84
2023/09/12 07:23:44;;;;;;;8.02;6.65;;;19.20;99.90;;;;;;4951671;29;20226;-85
2023/09/12 07:26:17;;;;;;;8.70;6.03;;;19.10;99.90;;;;;;4954257;28;20218;-86
2023/09/12 07:28:47;;;;;;;7.90;5.85;;;19.10;99.90;;;;;;4953269;29;20324;-85
2023/09/12 07:31:20;;;;;;;8.90;6.53;;;19.00;99.90;;;;;;4956929;29;20203;-85
2023/09/12 07:33:51;;;;;;;8.18;5.82;;;18.90;99.90;;;;;;4956535;29;20718;-86
2023/09/12 07:36:22;;;;;;;10.18;5.85;;;18.90;99.90;;;;;;4956307;29;20220;-86
2023/09/12 07:38:52;;;;;;;8.75;6.30;;;18.80;99.90;;;;;;4955981;29;20218;-86
2023/09/12 07:41:23;;;;;;;8.75;6.53;;;18.70;99.90;;;;;;4956299;29;20196;-85
2023/09/12 07:43:54;;;;;;;8.48;7.28;;;18.70;99.90;;;;;;4955191;29;20204;-86
2023/09/12 07:46:27;;;;;;;7.75;6.07;;;18.60;99.90;;;;;;4955827;29;20579;-86
2023/09/12 07:48:58;;;;;;;6.80;5.78;;;18.60;99.90;;;;;;4955615;29;20695;-87
2023/09/12 07:51:29;;;;;;;9.25;6.43;;;18.60;99.90;;;;;;4955740;29;20215;-86
2023/09/12 07:54:00;;;;;;;8.43;6.05;;;18.50;99.90;;;;;;4955974;29;20204;-86
2023/09/12 07:56:31;;;;;;;9.02;6.78;;;18.50;99.90;;;;;;4957492;29;20235;-86
2023/09/12 07:59:04;;;;;;;8.55;6.25;;;18.50;99.90;;;;;;4975061;29;20204;-87
2023/09/12 08:01:36;;;;;;;7.85;6.22;;;18.40;99.90;;;;;;4960953;29;21018;-85
2023/09/12 08:04:08;;;;;;;11.45;6.65;;;18.30;99.90;;;;;;4955107;29;20255;-85
2023/09/12 08:06:38;;;;;;;7.18;6.20;;;18.30;99.90;;;;;;4942516;29;20203;-85
2023/09/12 08:09:09;;;;;;;7.20;5.53;;;18.30;99.90;;;;;;4947585;29;20231;-85
2023/09/12 08:11:40;;;;;;;7.20;5.97;;;18.20;99.90;;;;;;4952567;29;20216;-86
2023/09/12 08:14:11;;;;;;;9.30;6.40;;;18.20;99.90;;;;;;4954211;29;20208;-86
2023/09/12 08:16:46;;;;;;;9.85;6.15;;;18.20;99.90;;;;;;4948866;29;20201;-85
2023/09/12 08:19:17;;;;;;;6.88;5.75;;;18.10;99.90;;;;;;4942679;29;20648;-86
2023/09/12 08:21:48;;;;;;;7.60;5.65;;;18.10;99.90;;;;;;4953670;29;20290;-86
2023/09/12 08:24:18;;;;;;;8.13;6.00;;;18.10;99.90;;;;;;4946925;29;20211;-85
2023/09/12 08:26:49;;;;;;;7.47;5.53;;;18.10;99.90;;;;;;4955013;29;20203;-86
2023/09/12 08:29:24;;;;;;;7.63;6.03;;;18.00;99.90;;;;;;4953164;29;20232;-86
2023/09/12 08:31:57;;;;;;;8.45;5.68;;;18.00;99.90;;;;;;4949559;29;20207;-85
2023/09/12 08:34:28;;;;;;;9.45;6.05;;;18.00;99.90;;;;;;4953996;28;20247;-84
2023/09/12 08:36:59;;;;;;;8.75;6.70;;;17.90;99.90;;;;;;4947962;28;20203;-86
2023/09/12 08:39:42;;;;;;;7.75;6.13;;;17.90;99.90;;;;;;4941227;28;20197;-84
2023/09/12 08:42:16;;;;;;;9.18;6.30;;;17.80;99.90;;;;;;4936346;29;20660;-85
2023/09/12 08:44:47;;;;;;;7.30;5.20;;;17.80;99.90;;;;;;4936134;29;20200;-85
2023/09/12 08:47:23;;;;;;;6.57;5.53;;;17.80;99.90;;;;;;4948280;29;20682;-84
2023/09/12 08:49:55;;;;;;;7.88;5.70;;;17.80;99.90;;;;;;4945886;29;20198;-85
2023/09/12 08:52:25;;;;;;;6.72;5.40;;;17.90;99.90;;;;;;4954346;29;20286;-84
2023/09/12 08:54:56;;;;;;;6.75;5.53;;;17.90;99.90;;;;;;4935543;29;20197;-84
2023/09/12 08:57:27;;;;;;;6.65;5.05;;;18.00;99.90;;;;;;4935091;29;20205;-85
2023/09/12 08:59:58;;;;;;;8.48;5.93;;;17.90;99.90;;;;;;4943194;29;20203;-86
2023/09/12 09:02:30;;;;;;;8.48;5.88;;;17.90;99.90;;;;;;4955619;29;20207;-86
2023/09/12 09:05:04;;;;;;;8.90;5.72;;;17.90;99.90;;;;;;4967656;29;20204;-86
2023/09/12 09:07:36;;;;;;;6.65;5.25;;;17.90;99.90;;;;;;4939709;29;20267;-86
2023/09/12 09:10:08;;;;;;;7.72;5.70;;;17.90;99.90;;;;;;4945099;29;20222;-86
2023/09/12 09:12:41;;;;;;;7.65;5.30;;;17.80;99.90;;;;;;4942399;29;20209;-86
2023/09/12 09:15:28;;;;;;;7.18;5.22;;;17.80;99.90;;;;;;4953608;29;20214;-86
2023/09/12 09:18:05;;;;;;;6.00;5.40;;;17.80;99.90;;;;;;4952134;29;20677;-84
2023/09/12 09:20:37;;;;;;;7.40;5.45;;;17.70;99.90;;;;;;4948825;29;20204;-85
2023/09/12 09:23:09;;;;;;;8.15;5.75;;;17.70;99.90;;;;;;4934738;29;20292;-86
2023/09/12 09:25:43;;;;;;;7.38;6.00;;;17.70;99.90;;;;;;4949111;28;20593;-84
2023/09/12 09:28:21;;;;;;;8.88;6.10;;;17.70;99.90;;;;;;4953328;29;20251;-84
2023/09/12 09:30:54;;;;;;;7.93;5.55;;;17.70;99.90;;;;;;4953869;29;20208;-85
2023/09/12 09:33:27;;;;;;;9.65;5.43;;;17.60;99.90;;;;;;4952778;29;20202;-82
2023/09/12 09:36:06;;;;;;;6.47;5.35;;;17.70;99.90;;;;;;4952357;28;20251;-84
2023/09/12 09:38:38;;;;;;;8.85;5.25;;;17.70;99.90;;;;;;4953142;29;20200;-84
2023/09/12 09:41:09;;;;;;;8.80;5.72;;;17.70;99.90;;;;;;4954318;29;20196;-83
2023/09/12 09:43:40;;;;;;;10.52;6.10;;;17.60;99.90;;;;;;4954350;29;20204;-84
2023/09/12 09:46:17;;;;;;;8.13;6.32;;;17.60;99.90;;;;;;4953010;29;20196;-86
2023/09/12 09:48:55;;;;;;;11.50;7.20;;;17.60;99.90;;;;;;4940949;29;20247;-86
2023/09/12 09:51:26;;;;;;;8.32;5.63;;;17.60;99.90;;;;;;4951606;29;20393;-86
2023/09/12 09:53:58;;;;;;;8.65;5.93;;;17.60;99.90;;;;;;4951836;29;20555;-86
2023/09/12 09:56:30;;;;;;;8.20;5.70;;;17.50;99.90;;;;;;4934125;29;20197;-85
2023/09/12 09:59:01;;;;;;;7.63;5.60;;;17.50;99.90;;;;;;4942642;29;20196;-84
2023/09/12 10:01:33;;;;;;;7.47;5.72;;;17.50;99.90;;;;;;4953110;29;20204;-85
2023/09/12 10:04:06;;;;;;;12.20;6.40;;;17.50;99.90;;;;;;4944931;29;20204;-84
2023/09/12 10:06:40;;;;;;;7.90;5.60;;;17.50;99.90;;;;;;4953466;29;20196;-86
2023/09/12 10:09:13;;;;;;;7.53;5.97;;;17.50;99.90;;;;;;4967296;28;20212;-86
2023/09/12 10:11:45;;;;;;;9.32;5.63;;;17.40;99.90;;;;;;4971786;29;20255;-88
2023/09/12 10:14:18;;;;;;;6.22;5.35;;;17.50;99.90;;;;;;4945764;29;20212;-87
2023/09/12 10:16:51;;;;;;;9.18;5.95;;;17.50;99.90;;;;;;4944110;29;20196;-86
2023/09/12 10:19:27;;;;;;;9.48;6.20;;;17.50;99.90;;;;;;4957630;29;20203;-86
2023/09/12 10:22:05;;;;;;;8.07;5.53;;;17.40;99.90;;;;;;4956351;29;20204;-86
2023/09/12 10:24:37;;;;;;;8.23;5.78;;;17.40;99.90;;;;;;4954738;29;20658;-86
2023/09/12 10:27:09;;;;;;;8.30;6.05;;;17.30;99.90;;;;;;4958695;29;20633;-87
2023/09/12 10:29:40;;;;;;;8.23;5.68;;;17.30;99.90;;;;;;4956934;28;20601;-87
2023/09/12 10:32:11;;;;;;;9.93;6.22;;;17.30;99.90;;;;;;4958655;29;20595;-86
2023/09/12 10:34:49;;;;;;;9.10;6.30;;;17.30;99.90;;;;;;4957405;28;20315;-85
2023/09/12 10:37:21;;;;;;;7.32;5.97;;;17.30;99.90;;;;;;4952125;29;20204;-86
2023/09/12 10:39:55;;;;;;;8.15;5.53;;;17.20;99.90;;;;;;4936915;29;20216;-86
2023/09/12 10:42:28;;;;;;;7.38;5.60;;;17.20;99.90;;;;;;4945309;29;20581;-85
2023/09/12 10:45:03;;;;;;;8.73;6.47;;;17.20;99.90;;;;;;4949888;29;20252;-86
2023/09/12 10:47:37;;;;;;;9.55;6.10;;;17.20;99.90;;;;;;4937230;29;20204;-86
2023/09/12 10:50:11;;;;;;;7.82;5.78;;;17.10;99.90;;;;;;4938117;29;20307;-86
2023/09/12 10:52:42;;;;;;;11.95;6.00;;;17.10;99.90;;;;;;4934610;29;20200;-86
2023/09/12 10:55:20;;;;;;;7.95;5.90;;;17.10;99.90;;;;;;4942578;29;20287;-86
2023/09/12 10:58:07;;;;;;;8.25;6.20;;;17.10;99.90;;;;;;4952099;29;20259;-85
2023/09/12 11:00:40;;;;;;;8.32;6.40;;;17.10;99.90;;;;;;4953896;28;20660;-86
2023/09/12 11:03:41;;;;;;;8.90;6.10;;;17.10;99.90;;;;;;4950870;29;20204;-85
2023/09/12 11:06:30;;;;;;;7.93;6.47;;;17.10;99.90;;;;;;4941152;29;20207;-85
2023/09/12 11:09:19;;;;;;;7.43;6.53;;;17.10;99.90;;;;;;4939477;29;20228;-87
2023/09/12 11:11:50;;;;;;;10.88;6.47;;;17.10;99.90;;;;;;4954614;29;20521;-87
2023/09/12 11:14:23;;;;;;;10.45;6.53;;;17.00;99.90;;;;;;4947573;29;20197;-87
2023/09/12 11:17:29;;;;;;;8.70;6.60;;;17.00;99.90;;;;;;4957704;28;20213;-86
2023/09/12 11:20:10;;;;;;;8.88;6.32;;;16.90;99.90;;;;;;4947662;29;20231;-85
2023/09/12 11:22:43;;;;;;;8.98;6.80;;;16.90;99.90;;;;;;4939971;29;20201;-86
2023/09/12 11:25:25;;;;;;;8.20;6.20;;;16.90;99.90;;;;;;4951141;29;20575;-87
2023/09/12 11:28:08;;;;;;;9.15;6.80;;;16.90;99.90;;;;;;4952356;29;20672;-86
2023/09/12 11:30:39;;;;;;;8.40;6.57;;;16.90;99.90;;;;;;4956902;29;20578;-85
2023/09/12 11:33:14;;;;;;;8.50;6.68;;;16.90;99.90;;;;;;4958871;29;20246;-87
2023/09/12 11:35:46;;;;;;;8.80;6.72;;;16.90;99.90;;;;;;4956741;29;20239;-86
2023/09/12 11:38:35;;;;;;;7.40;5.82;;;16.80;99.90;;;;;;4963123;29;20207;-86
2023/09/12 11:41:06;;;;;;;6.93;6.10;;;16.90;99.90;;;;;;4962338;29;20287;-83
2023/09/12 11:43:40;;;;;;;9.32;6.25;;;16.80;99.90;;;;;;4940731;29;20220;-85
2023/09/12 11:46:11;;;;;;;9.50;6.43;;;16.80;99.90;;;;;;4940272;29;20207;-86
2023/09/12 11:48:43;;;;;;;8.13;6.30;;;16.80;99.90;;;;;;4943738;29;20240;-87
2023/09/12 11:51:15;;;;;;;8.38;6.63;;;16.80;99.90;;;;;;4944483;29;20204;-85
2023/09/12 11:53:55;;;;;;;10.32;6.65;;;16.80;99.90;;;;;;4944938;28;20294;-85
2023/09/12 11:56:27;;;;;;;7.63;6.35;;;16.80;99.90;;;;;;4948734;29;20335;-86
2023/09/12 11:59:07;;;;;;;7.72;6.53;;;16.80;99.90;;;;;;4939481;29;20200;-87
2023/09/12 12:01:39;;;;;;;8.20;7.10;;;16.70;99.90;;;;;;4952462;29;20199;-85
2023/09/12 12:04:11;;;;;;;11.80;8.05;;;16.70;99.90;;;;;;4948104;29;20279;-85
2023/09/12 12:06:43;;;;;;;9.25;7.63;;;16.60;99.90;;;;;;4946188;29;20628;-86
2023/09/12 12:09:18;;;;;;;10.13;7.38;;;16.60;99.90;;;;;;4940622;29;20299;-86
2023/09/12 12:11:50;;;;;;;8.57;7.10;;;16.60;99.90;;;;;;4940680;29;20232;-86
2023/09/12 12:14:21;;;;;;;8.93;7.65;;;16.60;99.90;;;;;;4951565;29;20196;-86
2023/09/12 12:16:52;;;;;;;9.73;7.22;;;16.60;99.90;;;;;;4940493;29;20425;-85
2023/09/12 12:19:23;;;;;;;7.95;6.20;;;16.60;99.90;;;;;;4939400;29;20228;-86
2023/09/12 12:21:56;;;;;;;10.07;6.78;;;16.60;99.90;;;;;;4963906;29;20200;-86
2023/09/12 12:24:38;;;;;;;8.27;6.20;;;16.50;99.90;;;;;;4956849;29;20212;-86
2023/09/12 12:27:11;;;;;;;7.40;6.53;;;16.50;99.90;;;;;;4958493;29;20203;-86
2023/09/12 12:29:43;;;;;;;9.65;7.50;;;16.50;99.90;;;;;;4955680;29;20266;-86
2023/09/12 12:32:17;;;;;;;8.27;7.07;;;16.40;99.90;;;;;;4937840;29;20212;-85
2023/09/12 12:34:52;;;;;;;9.13;7.47;;;16.40;99.90;;;;;;4937400;29;20594;-86
2023/09/12 12:37:23;;;;;;;11.20;7.20;;;16.40;99.90;;;;;;4945350;29;20206;-87
2023/09/12 12:39:55;;;;;;;10.05;7.00;;;16.40;99.90;;;;;;4956438;29;20659;-86
2023/09/12 12:42:26;;;;;;;8.40;6.85;;;16.40;99.90;;;;;;4947520;29;20224;-86
2023/09/12 12:44:58;;;;;;;8.02;7.03;;;16.40;99.90;;;;;;4944289;29;20571;-86
2023/09/12 12:47:31;;;;;;;9.18;7.38;;;16.40;99.90;;;;;;4955945;29;20196;-87
2023/09/12 12:50:02;;;;;;;9.80;7.20;;;16.40;99.90;;;;;;4956080;29;20250;-87
2023/09/12 12:52:33;;;;;;;10.50;7.85;;;16.40;99.90;;;;;;4956955;29;20196;-86
2023/09/12 12:55:12;;;;;;;10.05;7.90;;;16.40;99.90;;;;;;4950121;29;20572;-87
2023/09/12 12:57:43;;;;;;;8.70;7.03;;;16.30;99.90;;;;;;4937251;29;20582;-87
2023/09/12 13:00:15;;;;;;;9.57;7.40;;;16.40;99.90;;;;;;4937346;29;20216;-87
2023/09/12 13:02:46;;;;;;;8.93;7.40;;;16.40;99.90;;;;;;4938413;29;20204;-87
2023/09/12 13:05:30;;;;;;;8.35;7.15;;;16.30;99.90;;;;;;4942883;29;20199;-86
2023/09/12 13:08:01;;;;;;;9.13;7.78;;;16.30;99.90;;;;;;4942184;29;20200;-87
2023/09/12 13:10:33;;;;;;;10.50;8.20;;;16.30;99.90;;;;;;4946216;29;20579;-87